Terminal Aerodrome Forecast
Issued by NWS

Home | Current Version | Previous Version | Text Only | Print | Product List | Glossary On
Versions: 1 2 3 4 5 6 7 8 9 10 11 12
000
FTUS46 KPDT 291120
TAFBDN
TAF
KBDN 291120Z 2912/3012 22005KT P6SM SCT090 BKN160
     FM291700 32010KT P6SM SCT060
     FM292200 34015G25KT P6SM FEW070
     FM300400 VRB05KT P6SM FEW050 SCT200=

USA.gov is the U.S. government's official web portal to all federal, state and local government web resources and services.